createdAt,value
2023-05-14T00:01:25.339Z,12.04
2023-05-14T00:02:58.833Z,12.08
2023-05-14T00:04:32.368Z,12.07
2023-05-14T00:06:07.194Z,12.05
2023-05-14T00:07:39.433Z,12.07
2023-05-14T00:09:13.259Z,12.03
2023-05-14T00:10:46.506Z,12.10
2023-05-14T00:12:19.597Z,12.13
2023-05-14T00:13:52.825Z,12.17
2023-05-14T00:15:25.150Z,12.18
2023-05-14T00:16:59.629Z,12.22
2023-05-14T00:18:33.373Z,12.23
2023-05-14T00:20:08.111Z,12.26
2023-05-14T00:21:42.829Z,12.30
2023-05-14T00:23:15.987Z,12.34
2023-05-14T00:24:49.109Z,12.36
2023-05-14T00:26:22.292Z,12.37
2023-05-14T00:27:56.206Z,12.30
2023-05-14T00:29:29.608Z,12.20
2023-05-14T00:31:02.770Z,12.18
2023-05-14T00:32:36.102Z,12.16
2023-05-14T00:34:09.348Z,12.14
2023-05-14T00:35:42.539Z,12.14
2023-05-14T00:37:17.219Z,12.14
2023-05-14T00:38:50.542Z,12.05
2023-05-14T00:40:26.732Z,12.04
2023-05-14T00:42:00.109Z,12.05
2023-05-14T00:43:33.349Z,12.04
2023-05-14T00:45:07.897Z,12.03
2023-05-14T00:46:41.383Z,12.02
2023-05-14T00:48:14.885Z,12.03
2023-05-14T00:49:48.153Z,12.06
2023-05-14T00:51:21.669Z,12.13
2023-05-14T00:52:55.359Z,12.21
2023-05-14T00:54:31.593Z,12.26
2023-05-14T00:56:03.924Z,12.27
2023-05-14T00:57:38.079Z,12.27
2023-05-14T00:59:11.553Z,12.32
2023-05-14T01:00:45.124Z,12.31
2023-05-14T01:02:18.465Z,12.31
2023-05-14T01:03:53.541Z,12.34
2023-05-14T01:05:30.990Z,12.40
2023-05-14T01:07:17.949Z,12.45
2023-05-14T01:09:01.777Z,12.47
2023-05-14T01:10:40.455Z,12.56
2023-05-14T01:12:20.874Z,12.59
2023-05-14T01:14:08.980Z,12.66
2023-05-14T01:15:44.882Z,12.63
2023-05-14T01:17:20.106Z,12.66
2023-05-14T01:18:54.635Z,12.73
2023-05-14T01:20:28.271Z,12.72
2023-05-14T01:22:03.051Z,12.70
2023-05-14T01:23:36.273Z,12.68
2023-05-14T01:25:10.273Z,12.62
2023-05-14T01:26:42.490Z,12.58
2023-05-14T01:28:19.168Z,12.52
2023-05-14T01:29:59.459Z,12.49
2023-05-14T01:31:36.723Z,12.47
2023-05-14T01:33:14.342Z,12.49
2023-05-14T01:34:49.926Z,12.45
2023-05-14T01:36:23.199Z,12.43
2023-05-14T01:38:00.938Z,12.44
2023-05-14T01:39:33.739Z,12.44
2023-05-14T01:41:07.646Z,12.42
2023-05-14T01:42:40.846Z,12.43
2023-05-14T01:44:14.342Z,12.47
2023-05-14T01:45:47.716Z,12.48
2023-05-14T01:47:20.114Z,12.50
2023-05-14T01:48:53.269Z,12.48
2023-05-14T01:50:26.433Z,12.43
2023-05-14T01:51:58.888Z,12.41
2023-05-14T01:53:34.982Z,12.43
2023-05-14T01:55:08.979Z,12.45
2023-05-14T01:56:41.081Z,12.45
2023-05-14T01:58:14.335Z,12.44
2023-05-14T01:59:47.704Z,12.43
2023-05-14T02:01:21.108Z,12.40
2023-05-14T02:02:54.689Z,12.36
2023-05-14T02:04:29.681Z,12.37
2023-05-14T02:06:03.249Z,12.37
2023-05-14T02:07:36.402Z,12.36
2023-05-14T02:09:10.023Z,12.32
2023-05-14T02:10:43.409Z,12.26
2023-05-14T02:12:15.816Z,12.22
2023-05-14T02:13:49.016Z,12.15
2023-05-14T02:15:22.313Z,12.09
2023-05-14T02:16:56.354Z,12.04
2023-05-14T02:18:29.674Z,12.08
2023-05-14T02:20:02.986Z,12.13
2023-05-14T02:21:36.381Z,12.17
2023-05-14T02:23:09.628Z,12.20
2023-05-14T02:24:44.198Z,12.19
2023-05-14T02:26:17.856Z,12.20
2023-05-14T02:27:50.969Z,12.18
2023-05-14T02:29:24.511Z,12.19
2023-05-14T02:31:00.383Z,12.25
2023-05-14T02:32:33.749Z,12.28
2023-05-14T02:34:07.788Z,12.25
2023-05-14T02:35:41.268Z,12.22
2023-05-14T02:37:14.437Z,12.09
2023-05-14T02:38:47.642Z,11.94
2023-05-14T02:40:23.186Z,11.94
2023-05-14T02:41:55.666Z,12.02
2023-05-14T02:43:28.861Z,12.09
2023-05-14T02:45:02.112Z,12.06
2023-05-14T02:46:36.155Z,12.03
2023-05-14T02:48:09.530Z,11.98
2023-05-14T02:49:42.691Z,11.98
2023-05-14T02:51:14.965Z,11.92
2023-05-14T02:52:48.136Z,11.90
2023-05-14T02:54:21.562Z,11.84
2023-05-14T02:55:56.110Z,11.86
2023-05-14T02:57:29.696Z,11.88
2023-05-14T02:59:02.857Z,11.88
2023-05-14T03:00:36.742Z,11.92
2023-05-14T03:02:09.454Z,11.96
2023-05-14T03:03:43.518Z,11.99
2023-05-14T03:05:17.088Z,12.03
2023-05-14T03:06:50.488Z,12.05
2023-05-14T03:08:22.770Z,12.08
2023-05-14T03:09:55.958Z,12.07
2023-05-14T03:11:30.525Z,12.06
2023-05-14T03:13:03.947Z,12.10
2023-05-14T03:14:37.071Z,12.12
2023-05-14T03:16:10.509Z,12.14
2023-05-14T03:17:42.814Z,12.17
2023-05-14T03:19:16.294Z,12.17
2023-05-14T03:20:50.540Z,12.18
2023-05-14T03:22:23.714Z,12.25
2023-05-14T03:23:56.878Z,12.29
2023-05-14T03:25:30.295Z,12.33
2023-05-14T03:27:06.603Z,12.37
2023-05-14T03:28:41.596Z,12.38
2023-05-14T03:30:15.104Z,12.40
2023-05-14T03:31:47.549Z,12.46
2023-05-14T03:33:21.341Z,12.50
2023-05-14T03:34:54.548Z,12.52
2023-05-14T03:36:27.629Z,12.57
2023-05-14T03:38:01.138Z,12.64
2023-05-14T03:39:34.381Z,12.64
2023-05-14T03:41:06.643Z,12.62
2023-05-14T03:42:41.152Z,12.66
2023-05-14T03:44:16.984Z,12.71
2023-05-14T03:45:52.597Z,12.76
2023-05-14T03:47:26.168Z,12.77
2023-05-14T03:48:59.907Z,12.81
2023-05-14T03:50:33.631Z,12.86
2023-05-14T03:52:06.094Z,12.90
2023-05-14T03:53:39.286Z,12.90
2023-05-14T03:55:13.336Z,13.00
2023-05-14T03:56:47.060Z,12.97
2023-05-14T03:58:20.656Z,12.95
2023-05-14T03:59:53.850Z,12.84
2023-05-14T04:01:26.099Z,12.88
2023-05-14T04:02:59.703Z,12.92
2023-05-14T04:04:33.159Z,12.98
2023-05-14T04:06:08.906Z,13.02
2023-05-14T04:07:42.009Z,13.08
2023-05-14T04:09:15.237Z,13.09
2023-05-14T04:10:47.466Z,13.09
2023-05-14T04:12:20.687Z,13.14
2023-05-14T04:13:54.266Z,13.16
2023-05-14T04:15:27.925Z,13.23
2023-05-14T04:17:01.093Z,13.15
2023-05-14T04:18:35.359Z,13.16
2023-05-14T04:20:09.777Z,13.16
2023-05-14T04:21:43.134Z,13.22
2023-05-14T04:23:16.269Z,13.24
2023-05-14T04:24:48.417Z,13.26
2023-05-14T04:26:21.566Z,13.33
2023-05-14T04:27:54.840Z,13.42
2023-05-14T04:29:29.408Z,13.48
2023-05-14T04:31:02.727Z,13.51
2023-05-14T04:32:35.888Z,13.60
2023-05-14T04:34:09.283Z,13.69
2023-05-14T04:35:42.692Z,13.73
2023-05-14T04:37:15.972Z,13.75
2023-05-14T04:38:48.105Z,13.77
2023-05-14T04:40:22.926Z,13.76
2023-05-14T04:41:56.186Z,13.84
2023-05-14T04:43:29.520Z,13.97
2023-05-14T04:45:05.260Z,14.03
2023-05-14T04:46:38.670Z,14.13
2023-05-14T04:48:12.357Z,14.24
2023-05-14T04:49:45.587Z,14.34
2023-05-14T04:51:17.715Z,14.43
2023-05-14T04:52:51.140Z,14.49
2023-05-14T04:54:24.387Z,14.52
2023-05-14T04:55:57.648Z,14.60
2023-05-14T04:57:30.794Z,14.68
2023-05-14T04:59:04.080Z,14.75
2023-05-14T05:00:37.634Z,14.84
2023-05-14T05:02:10.874Z,14.90
2023-05-14T05:03:44.004Z,15.00
2023-05-14T05:05:18.145Z,15.15
2023-05-14T05:06:51.306Z,15.39
2023-05-14T05:08:24.556Z,15.77
2023-05-14T05:09:57.696Z,16.31
2023-05-14T05:11:31.200Z,16.85
2023-05-14T05:13:04.399Z,17.23
2023-05-14T05:14:37.694Z,17.55
2023-05-14T05:16:12.225Z,17.94
2023-05-14T05:17:45.902Z,18.32
2023-05-14T05:19:22.405Z,18.82
2023-05-14T05:20:59.753Z,19.21
2023-05-14T05:22:33.056Z,19.65
2023-05-14T05:24:07.095Z,19.90
2023-05-14T05:25:40.425Z,20.02
2023-05-14T05:27:12.759Z,19.98
2023-05-14T05:28:45.854Z,19.90
2023-05-14T05:30:19.686Z,19.79
2023-05-14T05:31:54.309Z,19.80
2023-05-14T05:33:27.672Z,19.60
2023-05-14T05:35:01.444Z,19.55
2023-05-14T05:36:34.910Z,19.73
2023-05-14T05:38:07.338Z,19.72
2023-05-14T05:39:40.682Z,19.86
2023-05-14T05:41:13.882Z,19.71
2023-05-14T05:42:47.297Z,19.76
2023-05-14T05:44:20.440Z,19.85
2023-05-14T05:45:53.619Z,19.83
2023-05-14T05:47:28.192Z,19.62
2023-05-14T05:49:01.327Z,19.54
2023-05-14T05:50:34.598Z,19.46
2023-05-14T05:52:08.308Z,19.42
2023-05-14T05:53:41.695Z,19.30
2023-05-14T05:55:14.865Z,19.15
2023-05-14T05:56:48.027Z,18.93
2023-05-14T05:58:21.352Z,18.71
2023-05-14T05:59:54.718Z,18.52
2023-05-14T06:01:28.042Z,18.48
2023-05-14T06:03:02.645Z,18.53
2023-05-14T06:04:36.033Z,18.56
2023-05-14T06:06:09.806Z,18.59
2023-05-14T06:07:42.973Z,18.40
2023-05-14T06:09:16.125Z,18.33
2023-05-14T06:10:49.324Z,18.23
2023-05-14T06:12:22.675Z,18.20
2023-05-14T06:13:55.890Z,18.08
2023-05-14T06:15:29.280Z,17.96
2023-05-14T06:17:02.532Z,17.91
2023-05-14T06:18:37.381Z,17.77
2023-05-14T06:20:11.359Z,17.74
2023-05-14T06:21:44.560Z,17.80
2023-05-14T06:23:17.812Z,17.71
2023-05-14T06:24:51.089Z,17.68
2023-05-14T06:26:24.589Z,17.67
2023-05-14T06:27:57.837Z,17.66
2023-05-14T06:29:30.995Z,17.66
2023-05-14T06:31:04.179Z,17.69
2023-05-14T06:32:37.373Z,17.63
2023-05-14T06:34:11.902Z,17.56
2023-05-14T06:35:46.075Z,17.52
2023-05-14T06:37:19.411Z,17.53
2023-05-14T06:38:52.605Z,17.50
2023-05-14T06:40:26.013Z,17.49
2023-05-14T06:41:59.240Z,17.45
2023-05-14T06:43:32.432Z,17.46
2023-05-14T06:45:06.492Z,17.46
2023-05-14T06:46:39.856Z,17.35
2023-05-14T06:48:13.364Z,17.41
2023-05-14T06:49:48.003Z,17.55
2023-05-14T06:51:21.158Z,17.67
2023-05-14T06:52:54.276Z,17.78
2023-05-14T06:54:27.595Z,17.81
2023-05-14T06:56:00.836Z,17.87
2023-05-14T06:57:34.164Z,17.89
2023-05-14T06:59:07.424Z,17.88
2023-05-14T07:00:40.770Z,17.84
2023-05-14T07:02:13.130Z,17.73
2023-05-14T07:03:46.383Z,17.79
2023-05-14T07:05:21.141Z,17.86
2023-05-14T07:06:54.516Z,17.91
2023-05-14T07:08:27.952Z,17.97
2023-05-14T07:10:01.563Z,18.02
2023-05-14T07:11:34.927Z,18.08
2023-05-14T07:13:08.148Z,18.05
2023-05-14T07:14:41.483Z,18.02
2023-05-14T07:16:14.763Z,18.02
2023-05-14T07:17:48.422Z,18.03
2023-05-14T07:19:22.391Z,18.13
2023-05-14T07:20:58.504Z,18.20
2023-05-14T07:22:31.889Z,18.22
2023-05-14T07:24:05.717Z,18.36
2023-05-14T07:25:39.749Z,18.47
2023-05-14T07:27:13.148Z,18.55
2023-05-14T07:28:46.347Z,18.62
2023-05-14T07:30:19.501Z,18.71
2023-05-14T07:31:51.950Z,18.72
2023-05-14T07:33:25.751Z,18.81
2023-05-14T07:34:58.965Z,18.93
2023-05-14T07:36:33.535Z,19.00
2023-05-14T07:38:06.789Z,19.02
2023-05-14T07:39:41.754Z,19.08
2023-05-14T07:41:14.941Z,19.15
2023-05-14T07:42:48.078Z,19.17
2023-05-14T07:44:20.193Z,19.13
2023-05-14T07:45:54.000Z,19.12
2023-05-14T07:47:26.332Z,19.21
2023-05-14T07:48:59.499Z,19.20
2023-05-14T07:50:32.817Z,19.20
2023-05-14T07:52:07.632Z,19.21
2023-05-14T07:53:41.307Z,19.25
2023-05-14T07:55:14.754Z,19.22
2023-05-14T07:56:47.864Z,19.30
2023-05-14T07:58:21.372Z,19.26
2023-05-14T07:59:54.631Z,19.16
2023-05-14T08:01:27.956Z,19.11
2023-05-14T08:03:01.232Z,19.15
2023-05-14T08:04:36.263Z,19.21
2023-05-14T08:06:09.776Z,19.28
2023-05-14T08:07:44.635Z,19.31
2023-05-14T08:09:17.769Z,19.32
2023-05-14T08:10:51.929Z,19.21
2023-05-14T08:12:25.499Z,19.25
2023-05-14T08:13:58.667Z,19.34
2023-05-14T08:15:31.852Z,19.40
2023-05-14T08:17:06.170Z,19.48
2023-05-14T08:18:39.459Z,19.48
2023-05-14T08:20:13.227Z,19.49
2023-05-14T08:21:46.469Z,19.48
2023-05-14T08:23:22.664Z,19.46
2023-05-14T08:24:55.766Z,19.54
2023-05-14T08:26:28.912Z,19.58
2023-05-14T08:28:02.326Z,19.64
2023-05-14T08:29:36.019Z,19.67
2023-05-14T08:31:09.582Z,19.68
2023-05-14T08:32:42.865Z,19.71
2023-05-14T08:34:16.228Z,19.66
2023-05-14T08:35:51.244Z,19.71
2023-05-14T08:37:24.449Z,19.76
2023-05-14T08:38:58.959Z,19.86
2023-05-14T08:40:32.242Z,19.92
2023-05-14T08:42:08.016Z,19.94
2023-05-14T08:43:50.128Z,20.04
2023-05-14T08:45:29.287Z,20.15
2023-05-14T08:47:03.114Z,20.20
2023-05-14T08:48:37.829Z,20.25
2023-05-14T08:50:11.534Z,20.25
2023-05-14T08:51:47.130Z,20.09
2023-05-14T08:53:20.524Z,20.09
2023-05-14T08:54:55.180Z,20.07
2023-05-14T08:56:28.800Z,20.14
2023-05-14T08:58:02.491Z,20.31
2023-05-14T08:59:35.655Z,20.29
2023-05-14T09:01:09.038Z,20.41
2023-05-14T09:02:43.393Z,20.51
2023-05-14T09:04:17.798Z,20.63
2023-05-14T09:05:53.222Z,20.72
2023-05-14T09:07:27.045Z,20.74
2023-05-14T09:09:00.383Z,20.76
2023-05-14T09:10:34.974Z,20.70
2023-05-14T09:12:09.054Z,20.72
2023-05-14T09:13:43.066Z,20.68
2023-05-14T09:15:16.185Z,20.73
2023-05-14T09:16:51.796Z,20.74
2023-05-14T09:18:25.732Z,20.83
2023-05-14T09:19:59.792Z,20.80
2023-05-14T09:21:33.597Z,20.85
2023-05-14T09:23:06.909Z,20.97
2023-05-14T09:24:40.617Z,20.92
2023-05-14T09:26:18.685Z,20.94
2023-05-14T09:27:52.553Z,20.98
2023-05-14T09:29:26.086Z,20.96
2023-05-14T09:30:59.352Z,21.03
2023-05-14T09:32:37.396Z,21.04
2023-05-14T09:34:10.999Z,21.08
2023-05-14T09:35:44.543Z,21.14
2023-05-14T09:37:17.862Z,21.19
2023-05-14T09:38:51.229Z,21.23
2023-05-14T09:40:25.383Z,21.28
2023-05-14T09:42:00.215Z,21.39
2023-05-14T09:43:33.548Z,21.50
2023-05-14T09:45:08.230Z,21.55
2023-05-14T09:46:41.411Z,21.60
2023-05-14T09:48:14.618Z,21.62
2023-05-14T09:49:50.827Z,21.56
2023-05-14T09:51:24.298Z,21.48
2023-05-14T09:52:57.418Z,21.57
2023-05-14T09:54:31.336Z,21.55
2023-05-14T09:56:04.908Z,21.59
2023-05-14T09:57:39.503Z,21.62
2023-05-14T09:59:12.849Z,21.46
2023-05-14T10:00:47.799Z,21.35
2023-05-14T10:02:25.218Z,21.26
2023-05-14T10:03:58.779Z,21.18
2023-05-14T10:05:33.243Z,21.20
2023-05-14T10:07:06.511Z,21.23
2023-05-14T10:08:44.847Z,21.24
2023-05-14T10:10:22.102Z,21.22
2023-05-14T10:12:00.093Z,21.21
2023-05-14T10:13:40.695Z,21.37
2023-05-14T10:15:21.070Z,21.51
2023-05-14T10:16:55.295Z,21.62
2023-05-14T10:18:32.733Z,21.78
2023-05-14T10:20:09.517Z,21.83
2023-05-14T10:21:45.909Z,21.85
2023-05-14T10:23:19.483Z,21.82
2023-05-14T10:24:53.747Z,21.91
2023-05-14T10:26:27.044Z,22.05
2023-05-14T10:28:01.035Z,22.10
2023-05-14T10:29:36.541Z,22.18
2023-05-14T10:31:11.015Z,22.14
2023-05-14T10:32:44.426Z,22.18
2023-05-14T10:34:37.691Z,22.22
2023-05-14T10:36:12.030Z,22.25
2023-05-14T10:37:46.390Z,22.25
2023-05-14T10:39:19.668Z,22.17
2023-05-14T10:40:54.262Z,22.11
2023-05-14T10:42:28.912Z,22.07
2023-05-14T10:44:10.330Z,21.73
2023-05-14T10:45:46.873Z,21.59
2023-05-14T10:47:20.584Z,21.75
2023-05-14T10:48:53.757Z,21.86
2023-05-14T10:50:28.044Z,21.96
2023-05-14T10:52:01.927Z,22.18
2023-05-14T10:53:36.462Z,22.08
2023-05-14T10:55:10.887Z,21.93
2023-05-14T10:56:46.746Z,22.06
2023-05-14T10:58:19.906Z,22.10
2023-05-14T10:59:54.991Z,21.97
2023-05-14T11:01:29.767Z,22.00
2023-05-14T11:03:05.398Z,22.05
2023-05-14T11:04:37.598Z,21.78
2023-05-14T11:06:11.814Z,21.71
2023-05-14T11:07:46.755Z,21.82
2023-05-14T11:09:21.653Z,21.66
2023-05-14T11:10:56.945Z,21.66
2023-05-14T11:12:29.719Z,21.69
2023-05-14T11:14:02.922Z,21.70
2023-05-14T11:15:36.589Z,21.81
2023-05-14T11:17:10.407Z,21.72
2023-05-14T11:18:43.875Z,21.84
2023-05-14T11:20:18.040Z,21.91
2023-05-14T11:21:51.335Z,21.94
2023-05-14T11:23:26.499Z,21.88
2023-05-14T11:24:59.773Z,21.83
2023-05-14T11:26:33.234Z,21.77
2023-05-14T11:28:06.474Z,21.81
2023-05-14T11:29:39.935Z,21.93
2023-05-14T11:31:13.494Z,21.95
2023-05-14T11:32:49.980Z,21.89
2023-05-14T11:34:23.391Z,21.99
2023-05-14T11:35:56.619Z,22.02
2023-05-14T11:37:30.758Z,22.24
2023-05-14T11:39:04.035Z,22.39
2023-05-14T11:40:37.231Z,22.58
2023-05-14T11:42:14.644Z,22.53
2023-05-14T11:43:49.192Z,22.50
2023-05-14T11:45:26.782Z,22.78
2023-05-14T11:47:01.420Z,22.93
2023-05-14T11:48:36.239Z,22.98
2023-05-14T11:50:10.423Z,23.05
2023-05-14T11:51:43.739Z,23.02
2023-05-14T11:53:20.961Z,23.05
2023-05-14T11:54:54.105Z,23.11
2023-05-14T11:56:27.567Z,23.15
2023-05-14T11:58:00.801Z,23.01
2023-05-14T11:59:33.971Z,22.72
2023-05-14T12:01:07.105Z,22.35
2023-05-14T12:02:40.805Z,21.99
2023-05-14T12:04:15.473Z,22.03
2023-05-14T12:05:57.281Z,21.97
2023-05-14T12:07:31.353Z,21.82
2023-05-14T12:09:06.718Z,21.61
2023-05-14T12:10:43.722Z,21.74
2023-05-14T12:12:20.258Z,21.87
2023-05-14T12:13:54.378Z,21.95
2023-05-14T12:15:27.782Z,22.07
2023-05-14T12:17:02.967Z,22.14
2023-05-14T12:18:36.338Z,22.09
2023-05-14T12:20:12.909Z,21.97
2023-05-14T12:21:47.980Z,21.80
2023-05-14T12:23:26.904Z,21.72
2023-05-14T12:25:19.027Z,21.70
2023-05-14T12:27:02.869Z,21.59
2023-05-14T12:28:38.505Z,21.45
2023-05-14T12:30:21.317Z,21.38
2023-05-14T12:31:58.496Z,21.39
2023-05-14T12:33:31.766Z,21.32
2023-05-14T12:35:05.394Z,21.20
2023-05-14T12:36:40.049Z,21.16
2023-05-14T12:38:13.207Z,21.14
2023-05-14T12:39:46.453Z,21.25
2023-05-14T12:41:19.653Z,21.23
2023-05-14T12:42:53.623Z,21.25
2023-05-14T12:44:28.250Z,21.22
2023-05-14T12:46:00.562Z,21.21
2023-05-14T12:47:33.792Z,21.15
2023-05-14T12:49:07.372Z,20.99
2023-05-14T12:50:40.650Z,20.85
2023-05-14T12:53:52.298Z,20.73
2023-05-14T12:55:25.518Z,20.63
2023-05-14T12:56:58.871Z,20.71
2023-05-14T12:58:32.238Z,20.77
2023-05-14T13:00:08.273Z,20.77
2023-05-14T13:01:42.401Z,20.82
2023-05-14T13:03:15.634Z,20.88
2023-05-14T13:04:48.977Z,20.98
2023-05-14T13:06:22.160Z,21.12
2023-05-14T13:08:00.115Z,21.14
2023-05-14T13:09:33.225Z,21.14
2023-05-14T13:11:06.837Z,21.08
2023-05-14T13:12:40.203Z,21.12
2023-05-14T13:14:13.303Z,21.22
2023-05-14T13:15:47.054Z,21.34
2023-05-14T13:17:20.488Z,21.38
2023-05-14T13:18:53.766Z,21.38
2023-05-14T13:20:27.598Z,21.45
2023-05-14T13:22:00.788Z,21.39
2023-05-14T13:23:35.459Z,21.29
2023-05-14T13:25:09.871Z,21.35
2023-05-14T13:26:44.599Z,21.31
2023-05-14T13:28:17.840Z,21.42
2023-05-14T13:29:51.047Z,21.46
2023-05-14T13:31:24.267Z,21.45
2023-05-14T13:32:57.566Z,21.55
2023-05-14T13:34:30.790Z,21.59
2023-05-14T13:36:04.666Z,21.58
2023-05-14T13:37:37.971Z,21.64
2023-05-14T13:39:14.234Z,21.58
2023-05-14T13:40:47.626Z,21.48
2023-05-14T13:42:20.952Z,21.57
2023-05-14T13:43:54.130Z,21.59
2023-05-14T13:45:26.418Z,21.60
2023-05-14T13:46:59.674Z,21.64
2023-05-14T13:48:32.885Z,21.61
2023-05-14T13:50:06.876Z,21.44
2023-05-14T13:51:40.034Z,21.47
2023-05-14T13:53:13.187Z,21.43
2023-05-14T13:54:48.070Z,21.48
2023-05-14T13:56:21.592Z,21.36
2023-05-14T13:57:54.856Z,21.36
2023-05-14T13:59:28.036Z,21.39
2023-05-14T14:01:01.481Z,21.30
2023-05-14T14:02:34.652Z,21.33
2023-05-14T14:04:07.892Z,21.31
2023-05-14T14:05:41.158Z,21.33
2023-05-14T14:07:14.676Z,21.34
2023-05-14T14:08:47.847Z,21.30
2023-05-14T14:10:22.488Z,21.38
2023-05-14T14:11:55.928Z,21.43
2023-05-14T14:13:29.576Z,21.42
2023-05-14T14:15:03.575Z,21.33
2023-05-14T14:16:37.029Z,21.28
2023-05-14T14:18:10.350Z,21.19
2023-05-14T14:19:43.499Z,21.08
2023-05-14T14:21:18.497Z,20.97
2023-05-14T14:22:51.750Z,20.92
2023-05-14T14:24:24.990Z,20.92
2023-05-14T14:25:59.634Z,20.84
2023-05-14T14:27:34.958Z,20.76
2023-05-14T14:29:08.045Z,20.72
2023-05-14T14:30:41.250Z,20.65
2023-05-14T14:32:14.506Z,20.62
2023-05-14T14:33:47.710Z,20.58
2023-05-14T14:35:21.469Z,20.52
2023-05-14T14:36:54.849Z,20.50
2023-05-14T14:38:28.230Z,20.51
2023-05-14T14:40:01.753Z,20.49
2023-05-14T14:41:36.651Z,20.44
2023-05-14T14:43:09.863Z,20.41
2023-05-14T14:44:43.235Z,20.32
2023-05-14T14:46:16.421Z,20.30
2023-05-14T14:47:50.933Z,20.28
2023-05-14T14:49:24.683Z,20.23
2023-05-14T14:50:58.116Z,20.21
2023-05-14T14:52:31.384Z,20.13
2023-05-14T14:54:05.107Z,20.10
2023-05-14T14:55:38.243Z,20.06
2023-05-14T14:57:14.242Z,19.95
2023-05-14T14:58:47.376Z,19.94
2023-05-14T15:00:20.558Z,19.94
2023-05-14T15:01:53.783Z,19.87
2023-05-14T15:03:27.256Z,19.81
2023-05-14T15:05:00.575Z,19.78
2023-05-14T15:06:33.754Z,19.75
2023-05-14T15:08:06.948Z,19.71
2023-05-14T15:09:40.147Z,19.69
2023-05-14T15:11:13.333Z,19.66
2023-05-14T15:12:48.280Z,19.66
2023-05-14T15:14:21.435Z,19.64
2023-05-14T15:15:54.742Z,19.64
2023-05-14T15:17:27.976Z,19.64
2023-05-14T15:19:01.175Z,19.60
2023-05-14T15:20:34.417Z,19.55
2023-05-14T15:22:07.617Z,19.53
2023-05-14T15:23:40.791Z,19.46
2023-05-14T15:25:13.917Z,19.45
2023-05-14T15:26:47.372Z,19.46
2023-05-14T15:28:22.081Z,19.47
2023-05-14T15:29:55.222Z,19.51
2023-05-14T15:31:28.476Z,19.54
2023-05-14T15:33:01.936Z,19.48
2023-05-14T15:34:35.315Z,19.36
2023-05-14T15:36:08.819Z,19.29
2023-05-14T15:37:43.130Z,19.26
2023-05-14T15:39:16.559Z,19.24
2023-05-14T15:40:51.053Z,19.20
2023-05-14T15:42:24.159Z,19.21
2023-05-14T15:43:58.781Z,19.24
2023-05-14T15:45:31.964Z,19.26
2023-05-14T15:47:05.434Z,19.26
2023-05-14T15:48:38.644Z,19.31
2023-05-14T15:50:12.029Z,19.32
2023-05-14T15:51:45.230Z,19.33
2023-05-14T15:53:19.067Z,19.32
2023-05-14T15:54:51.296Z,19.33
2023-05-14T15:56:24.573Z,19.29
2023-05-14T15:57:57.952Z,19.26
2023-05-14T15:59:32.900Z,19.22
2023-05-14T16:01:06.349Z,19.16
2023-05-14T16:02:39.966Z,19.13
2023-05-14T16:04:13.219Z,19.09
2023-05-14T16:05:46.885Z,19.05
2023-05-14T16:07:20.177Z,19.02
2023-05-14T16:08:53.371Z,18.99
2023-05-14T16:10:26.762Z,19.02
2023-05-14T16:12:00.162Z,19.02
2023-05-14T16:13:33.517Z,19.01
2023-05-14T16:15:09.200Z,19.05
2023-05-14T16:16:42.397Z,19.06
2023-05-14T16:18:15.806Z,19.04
2023-05-14T16:19:48.970Z,19.04
2023-05-14T16:21:22.354Z,19.04
2023-05-14T16:22:55.533Z,19.03
2023-05-14T16:24:28.869Z,19.01
2023-05-14T16:26:02.090Z,18.94
2023-05-14T16:27:36.524Z,18.90
2023-05-14T16:29:09.697Z,18.90
2023-05-14T16:30:44.501Z,18.91
2023-05-14T16:32:16.759Z,18.89
2023-05-14T16:33:49.985Z,18.85
2023-05-14T16:35:23.249Z,18.86
2023-05-14T16:36:56.760Z,18.85
2023-05-14T16:38:29.878Z,18.86
2023-05-14T16:40:03.316Z,18.89
2023-05-14T16:41:36.877Z,18.90
2023-05-14T16:43:10.192Z,18.91
2023-05-14T16:44:43.294Z,18.94
2023-05-14T16:46:17.889Z,18.92
2023-05-14T16:47:51.179Z,18.93
2023-05-14T16:49:24.377Z,18.94
2023-05-14T16:50:59.494Z,18.97
2023-05-14T16:52:32.669Z,18.99
2023-05-14T16:54:05.928Z,18.98
2023-05-14T16:55:39.032Z,18.98
2023-05-14T16:57:12.215Z,19.00
2023-05-14T16:58:45.331Z,19.00
2023-05-14T17:00:18.711Z,18.99
2023-05-14T17:01:53.514Z,18.98
2023-05-14T17:03:26.719Z,18.95
2023-05-14T17:05:00.200Z,18.97
2023-05-14T17:06:33.554Z,18.98
2023-05-14T17:08:07.294Z,18.96
2023-05-14T17:09:40.470Z,18.95
2023-05-14T17:11:13.559Z,18.93
2023-05-14T17:12:46.899Z,18.93
2023-05-14T17:14:20.159Z,18.95
2023-05-14T17:15:53.357Z,18.94
2023-05-14T17:17:27.979Z,18.95
2023-05-14T17:19:01.340Z,18.93
2023-05-14T17:20:34.657Z,18.92
2023-05-14T17:22:07.850Z,18.92
2023-05-14T17:23:42.469Z,18.87
2023-05-14T17:25:15.838Z,18.84
2023-05-14T17:26:49.298Z,18.78
2023-05-14T17:28:24.603Z,18.74
2023-05-14T17:29:58.054Z,18.75
2023-05-14T17:31:32.667Z,18.75
2023-05-14T17:33:07.464Z,18.73
2023-05-14T17:34:40.716Z,18.73
2023-05-14T17:36:13.920Z,18.72
2023-05-14T17:37:47.207Z,18.72
2023-05-14T17:39:20.483Z,18.72
2023-05-14T17:40:53.698Z,18.68
2023-05-14T17:42:26.975Z,18.66
2023-05-14T17:44:00.476Z,18.64
2023-05-14T17:45:42.607Z,18.65
2023-05-14T17:47:20.711Z,18.67
2023-05-14T17:48:55.253Z,18.67
2023-05-14T17:50:28.545Z,18.65
2023-05-14T17:52:01.912Z,18.64
2023-05-14T17:53:35.141Z,18.59
2023-05-14T17:55:09.491Z,18.55
2023-05-14T17:56:42.889Z,18.51
2023-05-14T17:58:16.424Z,18.49
2023-05-14T17:59:49.689Z,18.47
2023-05-14T18:01:22.992Z,18.45
2023-05-14T18:02:56.226Z,18.43
2023-05-14T18:04:30.846Z,18.41
2023-05-14T18:06:04.015Z,18.40
2023-05-14T18:07:37.221Z,18.39
2023-05-14T18:09:10.442Z,18.36
2023-05-14T18:10:43.818Z,18.36
2023-05-14T18:12:16.945Z,18.33
2023-05-14T18:13:50.078Z,18.32
2023-05-14T18:15:25.723Z,18.29
2023-05-14T18:16:59.518Z,18.25
2023-05-14T18:18:31.780Z,18.22
2023-05-14T18:20:07.868Z,18.21
2023-05-14T18:21:41.135Z,18.14
2023-05-14T18:23:14.451Z,18.14
2023-05-14T18:24:47.640Z,18.10
2023-05-14T18:26:22.041Z,18.05
2023-05-14T18:27:55.613Z,17.99
2023-05-14T18:29:28.867Z,17.95
2023-05-14T18:31:04.100Z,17.96
2023-05-14T18:32:37.304Z,17.96
2023-05-14T18:34:10.536Z,17.96
2023-05-14T18:35:45.252Z,17.97
2023-05-14T18:37:18.433Z,17.97
2023-05-14T18:38:51.627Z,17.97
2023-05-14T18:40:24.799Z,17.99
2023-05-14T18:41:58.309Z,18.01
2023-05-14T18:43:31.473Z,18.03
2023-05-14T18:45:05.164Z,18.03
2023-05-14T18:46:38.709Z,18.02
2023-05-14T18:48:12.431Z,17.96
2023-05-14T18:49:47.201Z,17.88
2023-05-14T18:51:21.881Z,17.83
2023-05-14T18:52:55.061Z,17.75
2023-05-14T18:54:28.438Z,17.70
2023-05-14T18:56:01.679Z,17.62
2023-05-14T18:57:34.970Z,17.65
2023-05-14T18:59:08.151Z,17.60
2023-05-14T19:00:41.551Z,17.60
2023-05-14T19:02:14.676Z,17.60
2023-05-14T19:03:48.030Z,17.56
2023-05-14T19:05:21.669Z,17.55
2023-05-14T19:06:56.464Z,17.59
2023-05-14T19:08:29.550Z,17.58
2023-05-14T19:10:03.693Z,17.59
2023-05-14T19:11:36.805Z,17.55
2023-05-14T19:13:10.047Z,17.49
2023-05-14T19:14:43.272Z,17.51
2023-05-14T19:16:16.991Z,17.52
2023-05-14T19:17:50.343Z,17.52
2023-05-14T19:19:23.903Z,17.49
2023-05-14T19:20:57.411Z,17.47
2023-05-14T19:22:32.045Z,17.49
2023-05-14T19:24:05.923Z,17.52
2023-05-14T19:25:39.201Z,17.53
2023-05-14T19:27:13.862Z,17.52
2023-05-14T19:28:47.048Z,17.51
2023-05-14T19:30:21.273Z,17.52
2023-05-14T19:31:54.481Z,17.49
2023-05-14T19:33:27.928Z,17.49
2023-05-14T19:35:01.117Z,17.53
2023-05-14T19:36:34.299Z,17.53
2023-05-14T19:38:09.631Z,17.50
2023-05-14T19:39:42.818Z,17.43
2023-05-14T19:41:16.281Z,17.32
2023-05-14T19:42:49.400Z,17.21
2023-05-14T19:44:22.779Z,17.15
2023-05-14T19:45:55.887Z,17.15
2023-05-14T19:47:29.594Z,17.15
2023-05-14T19:49:02.753Z,17.17
2023-05-14T19:50:36.869Z,17.16
2023-05-14T19:52:11.409Z,17.19
2023-05-14T19:53:45.939Z,17.20
2023-05-14T19:55:19.109Z,17.22
2023-05-14T19:56:52.282Z,17.23
2023-05-14T19:58:26.049Z,17.24
2023-05-14T19:59:59.292Z,17.23
2023-05-14T20:01:32.547Z,17.25
2023-05-14T20:03:06.251Z,17.26
2023-05-14T20:04:40.144Z,17.27
2023-05-14T20:06:13.382Z,17.27
2023-05-14T20:07:48.996Z,17.27
2023-05-14T20:09:23.774Z,17.29
2023-05-14T20:10:56.921Z,17.25
2023-05-14T20:12:30.052Z,17.23